createdAt,value
2018-01-21T00:00:18.289Z,99709.56
2018-01-21T00:02:46.787Z,99702.26
2018-01-21T00:05:15.245Z,99702.71
2018-01-21T00:07:43.598Z,99709.91
2018-01-21T00:10:11.961Z,99712.25
2018-01-21T00:12:40.710Z,99705.37
2018-01-21T00:15:09.082Z,99707.48
2018-01-21T00:17:37.572Z,99708.50
2018-01-21T00:20:06.312Z,99715.73
2018-01-21T00:22:41.540Z,99715.15
2018-01-21T00:25:10.301Z,99717.63
2018-01-21T00:27:38.664Z,99712.30
2018-01-21T00:30:07.040Z,99717.15
2018-01-21T00:32:35.413Z,99725.58
2018-01-21T00:35:03.796Z,99725.56
2018-01-21T00:37:32.155Z,99731.50
2018-01-21T00:40:00.521Z,99726.08
2018-01-21T00:42:28.930Z,99722.15
2018-01-21T00:44:57.297Z,99733.68
2018-01-21T00:47:25.769Z,99735.64
2018-01-21T00:49:54.183Z,99735.21
2018-01-21T00:52:22.528Z,99740.42
2018-01-21T00:54:50.905Z,99744.88
2018-01-21T00:57:19.252Z,99749.12
2018-01-21T00:59:48.105Z,99746.41
2018-01-21T01:02:16.460Z,99754.16
2018-01-21T01:04:44.833Z,99756.55
2018-01-21T01:07:13.192Z,99763.17
2018-01-21T01:09:41.552Z,99766.95
2018-01-21T01:12:10.291Z,99771.53
2018-01-21T01:14:38.667Z,99766.59
2018-01-21T01:17:07.029Z,99763.64
2018-01-21T01:19:35.556Z,99776.11
2018-01-21T01:22:03.915Z,99772.52
2018-01-21T01:24:32.280Z,99779.09
2018-01-21T01:27:00.648Z,99786.02
2018-01-21T01:29:29.025Z,99790.06
2018-01-21T01:31:57.386Z,99788.37
2018-01-21T01:34:25.731Z,99790.44
2018-01-21T01:36:54.100Z,99794.80
2018-01-21T01:39:22.572Z,99796.45
2018-01-21T01:41:50.985Z,99792.70
2018-01-21T01:44:19.896Z,99802.64
2018-01-21T01:46:48.265Z,99799.21
2018-01-21T01:49:17.103Z,99809.75
2018-01-21T01:51:45.470Z,99812.30
2018-01-21T01:54:13.819Z,99818.33
2018-01-21T01:56:42.597Z,99819.71
2018-01-21T01:59:11.336Z,99820.63
2018-01-21T02:01:39.707Z,99828.19
2018-01-21T02:04:08.068Z,99825.37
2018-01-21T02:06:36.423Z,99834.92
2018-01-21T02:09:05.312Z,99833.49
2018-01-21T02:11:33.665Z,99838.55
2018-01-21T02:14:02.131Z,99834.41
2018-01-21T02:16:30.611Z,99839.98
2018-01-21T02:18:59.079Z,99836.83
2018-01-21T02:21:27.526Z,99843.43
2018-01-21T02:23:55.866Z,99842.21
2018-01-21T02:26:24.446Z,99850.23
2018-01-21T02:28:52.800Z,99845.56
2018-01-21T02:31:21.152Z,99851.26
2018-01-21T02:33:49.568Z,99847.63
2018-01-21T02:36:17.979Z,99859.47
2018-01-21T02:38:46.738Z,99863.32
2018-01-21T02:41:15.096Z,99860.73
2018-01-21T02:43:43.444Z,99866.36
2018-01-21T02:46:11.842Z,99867.43
2018-01-21T02:48:40.238Z,99870.61
2018-01-21T02:51:08.597Z,99870.86
2018-01-21T02:53:36.969Z,99870.17
2018-01-21T02:56:05.367Z,99871.08
2018-01-21T02:58:33.842Z,99878.07
2018-01-21T03:01:02.191Z,99880.72
2018-01-21T03:03:30.955Z,99876.25
2018-01-21T03:05:59.418Z,99879.48
2018-01-21T03:08:27.769Z,99886.80
2018-01-21T03:10:56.183Z,99883.11
2018-01-21T03:13:24.567Z,99884.31
2018-01-21T03:15:53.033Z,99890.94
2018-01-21T03:18:21.490Z,99891.77
2018-01-21T03:20:49.868Z,99901.02
2018-01-21T03:23:18.265Z,99895.69
2018-01-21T03:25:46.678Z,99903.27
2018-01-21T03:28:15.152Z,99907.91
2018-01-21T03:30:43.549Z,99915.84
2018-01-21T03:33:12.319Z,99913.75
2018-01-21T03:35:41.203Z,99918.05
2018-01-21T03:38:09.549Z,99924.59
2018-01-21T03:40:37.919Z,99920.89
2018-01-21T03:43:06.284Z,99923.94
2018-01-21T03:45:34.652Z,99925.80
2018-01-21T03:48:03.082Z,99930.27
2018-01-21T03:50:31.569Z,99935.69
2018-01-21T03:52:59.922Z,99940.38
2018-01-21T03:55:28.283Z,99944.53
2018-01-21T03:57:56.636Z,99941.71
2018-01-21T04:00:25.415Z,99947.53
2018-01-21T04:02:53.876Z,99959.03
2018-01-21T04:05:22.243Z,99958.53
2018-01-21T04:07:50.740Z,99957.09
2018-01-21T04:10:19.098Z,99965.27
2018-01-21T04:12:47.479Z,99972.27
2018-01-21T04:15:15.860Z,99975.43
2018-01-21T04:17:44.218Z,99986.81
2018-01-21T04:20:12.613Z,99988.49
2018-01-21T04:22:40.964Z,99987.55
2018-01-21T04:25:09.376Z,99989.82
2018-01-21T04:27:37.748Z,99989.08
2018-01-21T04:30:06.145Z,99993.44
2018-01-21T04:32:35.040Z,100005.72
2018-01-21T04:35:03.507Z,99999.84
2018-01-21T04:37:31.878Z,100007.59
2018-01-21T04:40:00.253Z,100004.64
2018-01-21T04:42:28.612Z,100012.13
2018-01-21T04:44:56.976Z,100014.78
2018-01-21T04:47:25.385Z,100022.81
2018-01-21T04:49:53.789Z,100032.75
2018-01-21T04:52:22.167Z,100042.72
2018-01-21T04:54:50.564Z,100043.73
2018-01-21T04:57:18.931Z,100044.66
2018-01-21T04:59:47.287Z,100049.80
2018-01-21T05:02:15.724Z,100052.67
2018-01-21T05:04:44.172Z,100051.55
2018-01-21T05:07:12.635Z,100058.34
2018-01-21T05:09:41.016Z,100057.48
2018-01-21T05:12:09.496Z,100060.96
2018-01-21T05:14:37.847Z,100060.52
2018-01-21T05:17:06.259Z,100076.50
2018-01-21T05:19:34.632Z,100078.28
2018-01-21T05:22:03.020Z,100085.95
2018-01-21T05:24:31.399Z,100086.53
2018-01-21T05:26:59.947Z,100090.77
2018-01-21T05:29:28.301Z,100092.67
2018-01-21T05:31:57.069Z,100098.46
2018-01-21T05:34:25.437Z,100100.25
2018-01-21T05:36:53.903Z,100094.87
2018-01-21T05:39:22.262Z,100107.63
2018-01-21T05:41:50.649Z,100109.73
2018-01-21T05:44:19.007Z,100118.19
2018-01-21T05:46:47.417Z,100118.25
2018-01-21T05:49:15.778Z,100119.31
2018-01-21T05:51:44.139Z,100133.69
2018-01-21T05:54:12.501Z,100129.01
2018-01-21T05:56:41.310Z,100140.52
2018-01-21T05:59:10.437Z,100143.16
2018-01-21T06:01:38.843Z,100149.00
2018-01-21T06:04:07.192Z,100153.39
2018-01-21T06:06:35.630Z,100161.52
2018-01-21T06:09:03.980Z,100167.55
2018-01-21T06:11:32.438Z,100168.69
2018-01-21T06:14:00.824Z,100161.45
2018-01-21T06:16:29.285Z,100168.29
2018-01-21T06:18:57.638Z,100172.52
2018-01-21T06:21:26.023Z,100174.69
2018-01-21T06:23:54.383Z,100179.20
2018-01-21T06:26:22.804Z,100180.16
2018-01-21T06:28:51.158Z,100189.20
2018-01-21T06:31:19.526Z,100195.91
2018-01-21T06:33:47.884Z,100193.16
2018-01-21T06:36:16.660Z,100196.97
2018-01-21T06:38:45.017Z,100218.47
2018-01-21T06:41:13.461Z,100227.24
2018-01-21T06:43:41.812Z,100228.97
2018-01-21T06:46:10.606Z,100237.28
2018-01-21T06:48:39.363Z,100244.78
2018-01-21T06:51:07.819Z,100246.54
2018-01-21T06:53:36.198Z,100254.87
2018-01-21T06:56:04.589Z,100256.93
2018-01-21T06:58:32.947Z,100251.97
2018-01-21T07:01:01.310Z,100256.23
2018-01-21T07:03:29.668Z,100262.64
2018-01-21T07:05:58.510Z,100263.13
2018-01-21T07:08:26.892Z,100261.02
2018-01-21T07:10:55.253Z,100273.05
2018-01-21T07:13:23.618Z,100282.58
2018-01-21T07:15:52.029Z,100287.19
2018-01-21T07:18:20.411Z,100285.67
2018-01-21T07:20:48.927Z,100291.59
2018-01-21T07:23:17.694Z,100299.38
2018-01-21T07:25:46.064Z,100301.99
2018-01-21T07:28:14.711Z,100306.38
2018-01-21T07:30:43.071Z,100314.48
2018-01-21T07:33:11.433Z,100313.02
2018-01-21T07:35:40.201Z,100318.83
2018-01-21T07:38:08.553Z,100318.69
2018-01-21T07:40:36.950Z,100328.20
2018-01-21T07:43:05.332Z,100332.27
2018-01-21T07:45:33.899Z,100343.76
2018-01-21T07:48:02.324Z,100354.73
2018-01-21T07:50:31.085Z,100354.14
2018-01-21T07:52:59.435Z,100357.94
2018-01-21T07:55:27.807Z,100362.02
2018-01-21T07:57:56.305Z,100363.47
2018-01-21T08:00:24.775Z,100371.97
2018-01-21T08:02:53.181Z,100372.64
2018-01-21T08:05:21.632Z,100369.12
2018-01-21T08:07:50.020Z,100382.13
2018-01-21T08:10:18.412Z,100389.87
2018-01-21T08:12:46.778Z,100403.39
2018-01-21T08:15:15.162Z,100410.95
2018-01-21T08:17:43.533Z,100412.25
2018-01-21T08:20:11.921Z,100421.11
2018-01-21T08:22:40.267Z,100421.19
2018-01-21T08:25:08.615Z,100425.02
2018-01-21T08:27:37.048Z,100427.47
2018-01-21T08:30:05.436Z,100434.67
2018-01-21T08:32:33.813Z,100434.38
2018-01-21T08:35:07.791Z,100442.98
2018-01-21T08:37:41.540Z,100451.52
2018-01-21T08:40:15.402Z,100459.83
2018-01-21T08:42:43.831Z,100456.01
2018-01-21T08:45:12.184Z,100454.45
2018-01-21T08:47:40.568Z,100466.88
2018-01-21T08:50:08.927Z,100472.56
2018-01-21T08:52:37.330Z,100478.13
2018-01-21T08:55:05.806Z,100487.70
2018-01-21T08:57:34.152Z,100488.41
2018-01-21T09:00:02.503Z,100491.09
2018-01-21T09:02:31.343Z,100500.69
2018-01-21T09:04:59.731Z,100497.84
2018-01-21T09:07:28.091Z,100512.89
2018-01-21T09:09:56.486Z,100507.34
2018-01-21T09:12:24.855Z,100510.67
2018-01-21T09:14:53.247Z,100514.67
2018-01-21T09:17:21.603Z,100522.25
2018-01-21T09:19:49.971Z,100521.16
2018-01-21T09:22:18.418Z,100531.38
2018-01-21T09:24:46.764Z,100537.31
2018-01-21T09:27:15.128Z,100538.74
2018-01-21T09:29:43.471Z,100544.83
2018-01-21T09:32:12.283Z,100547.86
2018-01-21T09:34:40.808Z,100558.68
2018-01-21T09:37:09.171Z,100560.98
2018-01-21T09:39:37.525Z,100564.32
2018-01-21T09:42:05.993Z,100576.75
2018-01-21T09:44:34.420Z,100573.53
2018-01-21T09:47:02.858Z,100578.84
2018-01-21T09:49:31.215Z,100583.67
2018-01-21T09:51:59.963Z,100586.35
2018-01-21T09:54:28.324Z,100586.02
2018-01-21T09:56:56.699Z,100599.77
2018-01-21T09:59:25.071Z,100606.34
2018-01-21T10:01:53.435Z,100602.38
2018-01-21T10:04:21.780Z,100609.41
2018-01-21T10:06:50.622Z,100614.96
2018-01-21T10:09:19.109Z,100623.28
2018-01-21T10:11:47.516Z,100630.54
2018-01-21T10:14:15.867Z,100631.94
2018-01-21T10:16:44.249Z,100636.41
2018-01-21T10:19:12.597Z,100633.53
2018-01-21T10:21:41.004Z,100634.91
2018-01-21T10:24:09.360Z,100638.33
2018-01-21T10:26:37.867Z,100638.95
2018-01-21T10:29:06.224Z,100643.10
2018-01-21T10:31:34.583Z,100645.62
2018-01-21T10:34:03.464Z,100655.27
2018-01-21T10:36:32.309Z,100652.84
2018-01-21T10:39:00.647Z,100654.95
2018-01-21T10:41:29.003Z,100662.85
2018-01-21T10:43:57.745Z,100663.63
2018-01-21T10:46:26.119Z,100667.19
2018-01-21T10:48:54.476Z,100672.55
2018-01-21T10:51:22.832Z,100675.56
2018-01-21T10:53:51.673Z,100681.63
2018-01-21T10:56:20.052Z,100682.86
2018-01-21T10:58:48.395Z,100676.43
2018-01-21T11:01:16.922Z,100680.63
2018-01-21T11:03:45.288Z,100683.66
2018-01-21T11:06:13.640Z,100685.58
2018-01-21T11:08:42.060Z,100695.30
2018-01-21T11:11:10.421Z,100693.30
2018-01-21T11:13:38.770Z,100694.20
2018-01-21T11:16:07.132Z,100700.57
2018-01-21T11:18:35.894Z,100697.87
2018-01-21T11:21:04.251Z,100701.00
2018-01-21T11:23:32.604Z,100701.25
2018-01-21T11:26:00.980Z,100707.59
2018-01-21T11:28:29.336Z,100704.81
2018-01-21T11:30:58.113Z,100707.92
2018-01-21T11:33:26.857Z,100706.91
2018-01-21T11:35:55.251Z,100715.14
2018-01-21T11:38:23.619Z,100716.23
2018-01-21T11:40:52.084Z,100717.60
2018-01-21T11:43:20.502Z,100727.29
2018-01-21T11:45:49.104Z,100728.02
2018-01-21T11:48:17.955Z,100727.06
2018-01-21T11:50:46.331Z,100729.21
2018-01-21T11:53:14.690Z,100729.78
2018-01-21T11:55:43.046Z,100738.75
2018-01-21T11:58:11.395Z,100746.36
2018-01-21T12:00:39.758Z,100746.13
2018-01-21T12:03:08.124Z,100754.23
2018-01-21T12:05:36.484Z,100755.08
2018-01-21T12:08:04.826Z,100761.03
2018-01-21T12:10:33.593Z,100764.58
2018-01-21T12:13:02.039Z,100765.73
2018-01-21T12:15:30.425Z,100764.67
2018-01-21T12:17:58.786Z,100760.03
2018-01-21T12:20:27.156Z,100766.06
2018-01-21T12:22:55.559Z,100772.34
2018-01-21T12:25:23.927Z,100779.41
2018-01-21T12:27:52.336Z,100777.55
2018-01-21T12:30:20.707Z,100783.59
2018-01-21T12:32:49.076Z,100789.63
2018-01-21T12:35:17.520Z,100793.25
2018-01-21T12:37:45.892Z,100792.70
2018-01-21T12:40:14.661Z,100807.70
2018-01-21T12:42:43.003Z,100801.39
2018-01-21T12:45:11.360Z,100804.08
2018-01-21T12:47:39.756Z,100805.91
2018-01-21T12:50:08.113Z,100811.09
2018-01-21T12:52:36.454Z,100809.76
2018-01-21T12:55:05.226Z,100813.03
2018-01-21T12:57:33.578Z,100818.73
2018-01-21T13:00:01.925Z,100819.48
2018-01-21T13:02:30.285Z,100818.09
2018-01-21T13:04:59.121Z,100823.35
2018-01-21T13:07:27.517Z,100829.62
2018-01-21T13:09:55.870Z,100832.23
2018-01-21T13:12:24.257Z,100830.85
2018-01-21T13:14:52.600Z,100835.99
2018-01-21T13:17:21.021Z,100837.81
2018-01-21T13:19:49.371Z,100840.03
2018-01-21T13:22:17.736Z,100849.02
2018-01-21T13:24:46.087Z,100848.19
2018-01-21T13:27:14.451Z,100851.67
2018-01-21T13:29:42.808Z,100860.41
2018-01-21T13:32:11.160Z,100853.17
2018-01-21T13:37:14.307Z,100870.37
2018-01-21T13:39:42.667Z,100870.83
2018-01-21T13:42:11.034Z,100878.83
2018-01-21T13:44:39.380Z,100880.34
2018-01-21T13:47:08.522Z,100885.58
2018-01-21T13:49:38.408Z,100892.86
2018-01-21T13:52:08.564Z,100895.93
2018-01-21T13:54:37.025Z,100893.19
2018-01-21T13:57:07.194Z,100897.83
2018-01-21T13:59:36.188Z,100907.41
2018-01-21T14:02:04.958Z,100898.86
2018-01-21T14:04:35.131Z,100908.59
2018-01-21T14:07:05.504Z,100914.03
2018-01-21T14:09:34.167Z,100917.05
2018-01-21T14:12:04.833Z,100919.70
2018-01-21T14:14:33.770Z,100927.94
2018-01-21T14:17:02.484Z,100931.22
2018-01-21T14:19:31.581Z,100934.79
2018-01-21T14:22:01.671Z,100945.95
2018-01-21T14:24:30.666Z,100937.69
2018-01-21T14:26:59.160Z,100938.09
2018-01-21T14:29:28.753Z,100950.09
2018-01-21T14:31:57.119Z,100948.17
2018-01-21T14:34:26.058Z,100958.79
2018-01-21T14:36:54.873Z,100954.89
2018-01-21T14:39:23.233Z,100960.48
2018-01-21T14:41:54.136Z,100963.16
2018-01-21T14:44:22.566Z,100971.56
2018-01-21T14:46:51.301Z,100970.62
2018-01-21T14:49:21.710Z,100977.44
2018-01-21T14:51:50.470Z,100982.56
2018-01-21T14:54:18.825Z,100976.24
2018-01-21T14:56:47.238Z,100978.38
2018-01-21T14:59:16.325Z,100983.74
2018-01-21T15:01:46.684Z,100980.68
2018-01-21T15:04:15.353Z,100979.23
2018-01-21T15:06:45.498Z,100984.70
2018-01-21T15:09:14.987Z,100989.60
2018-01-21T15:11:43.570Z,100989.72
2018-01-21T15:14:13.347Z,100996.39
2018-01-21T15:16:43.465Z,100999.25
2018-01-21T15:19:12.411Z,101001.55
2018-01-21T15:21:41.118Z,101004.00
2018-01-21T15:24:11.396Z,101006.59
2018-01-21T15:26:40.511Z,101012.67
2018-01-21T15:29:09.928Z,101011.38
2018-01-21T15:31:38.745Z,101012.16
2018-01-21T15:34:07.498Z,101020.48
2018-01-21T15:36:36.794Z,101017.19
2018-01-21T15:39:05.492Z,101022.02
2018-01-21T15:41:33.904Z,101020.72
2018-01-21T15:44:02.853Z,101020.88
2018-01-21T15:46:33.037Z,101029.20
2018-01-21T15:49:02.707Z,101027.08
2018-01-21T15:51:32.582Z,101032.06
2018-01-21T15:54:01.719Z,101032.47
2018-01-21T15:56:31.448Z,101041.30
2018-01-21T15:59:00.133Z,101044.84
2018-01-21T16:01:29.015Z,101052.60
2018-01-21T16:03:57.432Z,101051.56
2018-01-21T16:06:26.276Z,101051.46
2018-01-21T16:08:54.683Z,101054.03
2018-01-21T16:11:23.032Z,101053.68
2018-01-21T16:13:51.380Z,101059.19
2018-01-21T16:16:19.728Z,101071.10
2018-01-21T16:18:48.073Z,101058.84
2018-01-21T16:21:16.429Z,101077.44
2018-01-21T16:23:44.776Z,101069.82
2018-01-21T16:26:13.613Z,101073.23
2018-01-21T16:28:41.964Z,101080.36
2018-01-21T16:31:10.344Z,101082.94
2018-01-21T16:33:38.699Z,101080.14
2018-01-21T16:36:07.299Z,101078.86
2018-01-21T16:41:43.101Z,101081.53
2018-01-21T16:44:11.451Z,101088.05
2018-01-21T16:46:39.861Z,101086.60
2018-01-21T16:49:08.229Z,101087.42
2018-01-21T16:51:36.584Z,101089.91
2018-01-21T16:54:04.931Z,101094.13
2018-01-21T16:56:33.374Z,101099.03
2018-01-21T16:59:01.720Z,101108.78
2018-01-21T17:01:30.088Z,101101.48
2018-01-21T17:03:58.847Z,101100.89
2018-01-21T17:06:27.201Z,101102.77
2018-01-21T17:08:55.552Z,101103.41
2018-01-21T17:11:23.904Z,101103.09
2018-01-21T17:13:52.926Z,101103.88
2018-01-21T17:16:21.298Z,101099.55
2018-01-21T17:18:49.706Z,101104.58
2018-01-21T17:21:18.068Z,101106.08
2018-01-21T17:23:46.420Z,101108.88
2018-01-21T17:26:15.171Z,101103.72
2018-01-21T17:28:43.525Z,101106.31
2018-01-21T17:31:11.914Z,101102.58
2018-01-21T17:33:40.467Z,101103.26
2018-01-21T17:36:10.211Z,101102.10
2018-01-21T17:38:38.898Z,101108.02
2018-01-21T17:41:08.448Z,101109.48
2018-01-21T17:43:37.059Z,101114.20
2018-01-21T17:46:05.433Z,101114.87
2018-01-21T17:48:33.860Z,101116.64
2018-01-21T17:51:02.215Z,101122.59
2018-01-21T17:53:30.773Z,101118.20
2018-01-21T17:55:59.199Z,101126.14
2018-01-21T17:58:27.664Z,101117.97
2018-01-21T18:00:56.025Z,101119.40
2018-01-21T18:03:24.385Z,101109.98
2018-01-21T18:05:52.817Z,101109.84
2018-01-21T18:08:21.174Z,101108.41
2018-01-21T18:10:49.530Z,101114.33
2018-01-21T18:13:17.895Z,101117.69
2018-01-21T18:15:46.253Z,101124.57
2018-01-21T18:18:15.016Z,101122.14
2018-01-21T18:20:43.411Z,101118.37
2018-01-21T18:23:11.989Z,101126.97
2018-01-21T18:25:40.340Z,101127.36
2018-01-21T18:28:08.681Z,101136.23
2018-01-21T18:30:37.100Z,101125.13
2018-01-21T18:33:05.447Z,101120.86
2018-01-21T18:35:33.807Z,101124.03
2018-01-21T18:38:02.568Z,101126.89
2018-01-21T18:40:31.028Z,101122.73
2018-01-21T18:42:59.390Z,101130.00
2018-01-21T18:45:27.771Z,101127.88
2018-01-21T18:47:56.115Z,101130.48
2018-01-21T18:50:24.476Z,101134.56
2018-01-21T18:52:53.464Z,101132.92
2018-01-21T18:55:21.806Z,101131.91
2018-01-21T18:57:50.223Z,101138.23
2018-01-21T19:00:18.994Z,101139.73
2018-01-21T19:02:47.356Z,101143.64
2018-01-21T19:05:15.779Z,101148.84
2018-01-21T19:07:44.518Z,101147.98
2018-01-21T19:10:12.974Z,101149.27
2018-01-21T19:12:41.317Z,101153.53
2018-01-21T19:15:10.072Z,101151.11
2018-01-21T19:17:38.461Z,101152.77
2018-01-21T19:20:06.819Z,101165.69
2018-01-21T19:22:35.210Z,101155.38
2018-01-21T19:25:03.645Z,101151.13
2018-01-21T19:27:31.996Z,101161.44
2018-01-21T19:30:00.852Z,101158.94
2018-01-21T19:32:29.212Z,101163.53
2018-01-21T19:34:57.560Z,101162.00
2018-01-21T19:37:26.400Z,101166.39
2018-01-21T19:39:54.759Z,101169.98
2018-01-21T19:42:28.539Z,101169.73
2018-01-21T19:44:56.890Z,101163.38
2018-01-21T19:47:25.721Z,101167.63
2018-01-21T19:49:54.100Z,101167.09
2018-01-21T19:52:22.481Z,101162.95
2018-01-21T19:54:50.839Z,101153.25
2018-01-21T19:57:19.331Z,101154.09
2018-01-21T19:59:47.747Z,101150.89
2018-01-21T20:02:16.127Z,101145.36
2018-01-21T20:04:44.553Z,101148.33
2018-01-21T20:07:12.875Z,101154.58
2018-01-21T20:09:41.259Z,101153.06
2018-01-21T20:12:09.629Z,101156.95
2018-01-21T20:14:37.988Z,101161.36
2018-01-21T20:17:06.366Z,101160.80
2018-01-21T20:19:34.715Z,101172.98
2018-01-21T20:22:03.464Z,101166.35
2018-01-21T20:24:31.824Z,101155.06
2018-01-21T20:27:00.291Z,101151.94
2018-01-21T20:29:28.849Z,101157.69
2018-01-21T20:31:57.625Z,101152.44
2018-01-21T20:34:26.064Z,101160.20
2018-01-21T20:36:54.460Z,101149.16
2018-01-21T20:39:22.809Z,101153.44
2018-01-21T20:41:51.172Z,101167.61
2018-01-21T20:44:19.647Z,101162.17
2018-01-21T20:46:48.107Z,101170.19
2018-01-21T20:49:16.956Z,101154.07
2018-01-21T20:51:50.774Z,101158.38
2018-01-21T20:54:24.616Z,101162.43
2018-01-21T20:56:53.373Z,101172.77
2018-01-21T20:59:21.788Z,101172.17
2018-01-21T21:01:50.569Z,101173.52
2018-01-21T21:04:19.347Z,101171.53
2018-01-21T21:06:47.712Z,101171.58
2018-01-21T21:09:16.068Z,101173.21
2018-01-21T21:11:44.549Z,101174.88
2018-01-21T21:14:12.900Z,101164.48
2018-01-21T21:16:41.319Z,101164.30
2018-01-21T21:19:09.700Z,101150.35
2018-01-21T21:21:38.167Z,101144.67
2018-01-21T21:24:06.520Z,101141.59
2018-01-21T21:26:34.916Z,101139.59
2018-01-21T21:29:03.445Z,101129.17
2018-01-21T21:31:31.809Z,101133.86
2018-01-21T21:34:00.157Z,101128.47
2018-01-21T21:36:28.552Z,101132.83
2018-01-21T21:38:56.907Z,101131.23
2018-01-21T21:41:25.263Z,101130.38
2018-01-21T21:43:53.755Z,101127.22
2018-01-21T21:46:22.115Z,101127.77
2018-01-21T21:48:50.863Z,101135.34
2018-01-21T21:51:19.259Z,101122.23
2018-01-21T21:53:47.600Z,101120.46
2018-01-21T21:56:15.969Z,101114.45
2018-01-21T21:58:44.320Z,101122.00
2018-01-21T22:01:13.153Z,101116.41
2018-01-21T22:03:41.509Z,101115.83
2018-01-21T22:06:09.985Z,101125.19
2018-01-21T22:08:38.660Z,101124.98
2018-01-21T22:11:09.512Z,101127.77
2018-01-21T22:13:40.552Z,101125.84
2018-01-21T22:16:09.387Z,101121.92
2018-01-21T22:18:37.786Z,101129.34
2018-01-21T22:21:06.266Z,101120.76
2018-01-21T22:23:35.011Z,101112.69
2018-01-21T22:26:03.395Z,101117.83
2018-01-21T22:28:31.811Z,101111.97
2018-01-21T22:31:00.564Z,101119.55
2018-01-21T22:33:28.911Z,101118.97
2018-01-21T22:35:57.291Z,101114.91
2018-01-21T22:38:25.705Z,101103.62
2018-01-21T22:40:54.064Z,101112.47
2018-01-21T22:43:22.427Z,101108.37
2018-01-21T22:45:50.840Z,101112.33
2018-01-21T22:48:19.209Z,101116.66
2018-01-21T22:50:47.567Z,101118.89
2018-01-21T22:53:15.975Z,101120.63
2018-01-21T22:55:44.348Z,101114.05
2018-01-21T22:58:12.710Z,101114.95
2018-01-21T23:00:41.108Z,101108.78
2018-01-21T23:03:09.500Z,101105.75
2018-01-21T23:05:37.871Z,101108.81
2018-01-21T23:08:06.233Z,101096.48
2018-01-21T23:10:34.600Z,101089.05
2018-01-21T23:13:02.958Z,101091.98
2018-01-21T23:15:31.322Z,101086.86
2018-01-21T23:18:00.064Z,101088.45
2018-01-21T23:23:43.215Z,101077.50
2018-01-21T23:26:11.585Z,101073.11
2018-01-21T23:28:39.963Z,101076.31
2018-01-21T23:31:08.336Z,101082.22
2018-01-21T23:33:36.796Z,101076.80
2018-01-21T23:36:05.186Z,101086.51
2018-01-21T23:38:33.553Z,101080.48
2018-01-21T23:41:01.920Z,101080.66
2018-01-21T23:43:30.340Z,101077.87
2018-01-21T23:45:58.832Z,101071.68
2018-01-21T23:48:28.373Z,101063.98
2018-01-21T23:50:58.834Z,101067.13
2018-01-21T23:53:27.302Z,101076.67
2018-01-21T23:55:56.531Z,101082.19
2018-01-21T23:58:24.912Z,101074.96
